KOCF/OCF METAR and TAF weather

Enter ICAO airport designator
Station Type Date Time Source
KOCF METAR 2020/01/28 11:51 UTC NOAA

KOCF 281151Z 01004KT 10SM CLR 07/07 A3001 RMK AO2 SLP161 T00670067 10133 20067 53017 $


Station Type Date Time Source
KOCF Decoded METAR 2020/01/28 11:51 UTC NOAA

Ocala, Ocala International Airport-Jim Taylor Field, FL, United States (KOCF) 29-10N 082-13W
Jan 28, 2020 - 06:51 AM EST / 2020.01.28 1151 UTC
Wind: from the N (010 degrees) at 5 MPH (4 KT):0
Visibility: 10 mile(s):0
Sky conditions: clear
Temperature: 44.1 F (6.7 C)
Dew Point: 44.1 F (6.7 C)
Relative Humidity: 100%
Pressure (altimeter): 30.01 in. Hg (1016 hPa)
Pressure tendency: 0.05 inches (1.7 hPa) higher than three hours ago
ob: KOCF 281151Z 01004KT 10SM CLR 07/07 A3001 RMK AO2 SLP161 T00670067 10133 20067 53017
cycle: 12

Station Type Date Time Source
KOCF TAF UTC NOAA

Error!

Example: see airport list